x

West Dixon Entrance (46205) Wave Buoy

12:00am - Sun 1st Feb 2015 All times are PST. -8 hours from GMT.

  • Sig Wave height 9.8ft
  • Peak Period 8s
  • Wind
    38mph, 47mph gusts
  • Sea Temp 48°f
  • Air Temp 44°f
  • Sea Pressure 1007.8mb
  • West Dixon Entrance
  • West Dixon Entrance

More Historic Weather Station data

Upgrade to MSW Pro to gain access to the past 30 days of data for over 8000 Wavebouys and Weather Stations around the globe.

Join Pro

Comparision Forecast

View Surf forecast
   
Sun 02/01 12:00am 10ft 8s 38 47 mph 1007.8mb 48f 44f
Sat 01/31 11:00pm 9.5ft 7s 34
mph
1008.8mb 48f 44f
10:00pm 9.5ft 7s 34 45 mph 1009.6mb 48f 44f
9:00pm 9.5ft 7s 34 43 mph 1010.6mb 48f 45f
8:00pm 8ft 7s 31 38 mph 1011.9mb 48f 45f
7:00pm 8.5ft 7s 29 34 mph 1013mb 48f 46f
6:00pm 8ft 7s 27 31 mph 1013.7mb 48f 46f
5:00pm 8ft 7s 27 31 mph 1014.7mb 48f 46f
4:00pm 8ft 6s 27 31 mph 1015.4mb 48f 46f
2:00pm 9ft 7s 22 27 mph 1017.6mb 48f 46f
1:00pm 8.5ft 7s 22 27 mph 1018.6mb 48f 46f
12:00pm 7.5ft 7s 25 31 mph 1019.1mb 48f 46f
11:00am 7ft 6s 27 31 mph 1019.7mb 48f 46f
10:00am 7ft 6s 27 34 mph 1019.7mb 48f 45f
9:00am 7ft 6s 27 34 mph 1020.2mb 48f 45f
8:00am 7ft 6s 25 29 mph 1021.3mb 47f 45f
7:00am 6.5ft 6s 27 31 mph 1021.3mb 47f 45f
6:00am 5.5ft 5s 25 31 mph 1021.9mb 47f 45f
5:00am 5.5ft 5s 22 27 mph 1022.6mb 47f 45f
4:00am 5ft 8s 20 25 mph 1022.9mb 47f 46f
3:00am 5ft 5s 18 20 mph 1023.6mb 47f 46f
2:00am 5ft 13s 16 18 mph 1024.2mb 47f 46f
1:00am 5ft 13s 18 20 mph 1024.4mb 47f 46f
12:00am 5ft 14s 18 22 mph 1024.9mb 47f 46f
Fri 01/30 11:00pm 4.5ft 14s 20 25 mph 1024.9mb 47f 46f
10:00pm 5ft 12s 16 18 mph 1025.7mb 48f 46f
9:00pm 5.5ft 11s 13 16 mph 1025.4mb 48f 46f
8:00pm 5ft 12s 16 18 mph 1025.4mb 48f 46f
7:00pm 5ft 14s 16 18 mph 1025.7mb 47f 46f
6:00pm 5ft 13s 16 20 mph 1025.7mb 47f 45f
5:00pm 5ft 14s 16 18 mph 1026.1mb 47f 45f
4:00pm 6ft 13s 13 16 mph 1026.2mb 47f 46f
3:00pm 6ft 13s 13 16 mph 1026.1mb 47f 46f
2:00pm 6ft 12s 13 18 mph 1025.8mb 47f 46f
1:00pm 6ft 14s 18 20 mph 1025.8mb 47f 45f
12:00pm 6ft 14s 18 22 mph 1024.9mb 47f 45f
11:00am 5.5ft 13s 18 22 mph 1024.7mb 48f 45f
10:00am 6ft 14s 16 18 mph 1024.1mb 48f 46f
9:00am 6ft 13s 18 22 mph 1022.9mb 48f 45f
8:00am 5ft 14s 13 16 mph 1023mb 48f 45f
7:00am 5.5ft 13s 13 18 mph 1022.4mb 48f 45f
6:00am 5.5ft 14s 18 20 mph 1021.5mb 48f 45f
5:00am 5ft 14s 16 20 mph 1022.2mb 48f 45f
4:00am 6ft 10s 16 20 mph 1022.1mb 48f 46f
3:00am 6ft 8s 18 22 mph 1021.8mb 48f 46f
2:00am 6ft 8s 18 22 mph 1021.4mb 48f 46f
1:00am 6ft 10s 18 22 mph 1021.5mb 48f 46f
12:00am 6.5ft 9s 18 22 mph 1021.6mb 48f 46f
Thu 01/29 11:00pm 6ft 10s 18 22 mph 1021.8mb 48f 46f
10:00pm 6.5ft 10s 16 20 mph 1022.1mb 48f 46f
9:00pm 6ft 10s 16 18 mph 1022.4mb 47f 46f
8:00pm 6.5ft 9s 13 18 mph 1022.8mb 47f 46f
7:00pm 7ft 9s 11 16 mph 1023.1mb 48f 46f
6:00pm 6.5ft 10s 11 13 mph 1023.6mb 48f 46f
5:00pm 7ft 10s 11 16 mph 1023.4mb 48f 46f
4:00pm 7ft 10s 9 11 mph 1023.8mb 48f 46f
3:00pm 7ft 10s 4 7 mph 1024.2mb 48f 46f
2:00pm 7ft 10s 4 7 mph 1023.8mb 48f 46f
1:00pm 8ft 10s 2 4 mph 1024.2mb 47f 47f
12:00pm 8ft 9s 4
mph
1024mb 47f 47f
11:00am 8.5ft 10s 2 4 mph 1023.8mb 47f 47f
10:00am 8ft 10s 4 7 mph 1023.2mb 47f 46f
9:00am 8ft 10s 7 9 mph 1022.8mb 48f 46f
8:00am 8.5ft 10s 7 9 mph 1022.1mb 48f 46f
7:00am 8.5ft 10s 9 11 mph 1021.7mb 48f 46f
6:00am 9ft 10s 11 16 mph 1021.1mb 48f 46f
5:00am 8.5ft 10s 11 13 mph 1021mb 48f 46f
4:00am 9ft 10s 11 16 mph 1020.5mb 47f 46f
3:00am 9ft 9s 13 16 mph 1020.1mb 47f 46f
2:00am 9ft 10s 13 18 mph 1019.3mb 47f 47f
1:00am 10ft 10s 16 20 mph 1018.4mb 47f 47f
12:00am 10.5ft 10s 13 18 mph 1018mb 47f 47f
Wed 01/28 11:00pm 10.5ft 10s 9 13 mph 1017.1mb 47f 46f
10:00pm 11ft 11s 13 18 mph 1016.4mb 47f 47f
9:00pm 11ft 10s 13 18 mph 1015.8mb 47f 46f
8:00pm 12ft 10s 18 22 mph 1014.8mb 47f 48f
7:00pm 11ft 9s 22 27 mph 1014.5mb 47f 48f
6:00pm 12ft 10s 25 29 mph 1014.5mb 47f 48f
5:00pm  -   -  27
mph
1014.3mb - 48f
4:00pm 14.5ft 9s 31 38 mph 1014mb 48f 48f
3:00pm 14.5ft 10s 34 45 mph 1014mb 48f 48f
2:00pm 14ft 9s 34 43 mph 1014mb 48f 49f
1:00pm 15ft 8s 36 45 mph 1014mb 48f 49f
12:00pm 15.5ft 8s 38 47 mph 1014.3mb 48f 49f
11:00am 14ft 9s 38 45 mph 1014.4mb 48f 49f
10:00am 13.5ft 9s 36 45 mph 1014.2mb 48f 49f